トビリシ の空港の天気 - METARとTAF

トビリシ国際空港 ( UGTB / TBS ) - ジョージア トビリシ
飛行場実況気象(Metar)
観測時間05/28 14:30 GET (05/28 10:30 UTC)
風向・風速南東 4m/s
視程10km以上
天気現象
なし
気温26℃
湿度42%
気圧1017hPa
METARUGTB 281030Z 13008KT 080V180 CAVOK 26/12 Q1017 NOSIG
過去の天気等 Google飛行場航空写真 Wunderground天気予報

過去48時間のMETAR

飛行場予報(TAF)
発表時間: 5/28 09:00 GET (5/28 05:00 UTC)
予報対象時間: 28日10時 GET ~ 29日10時 GET
風向・風速南東 5m/s
視程10km以上
なし
28日22時 GET ~ 28日24時 GET に徐々に
風向・風速北西 4m/s
TAF UGTB 280500Z 2806/2906 14010KT CAVOK TX27/2812Z TN13/2902Z
BECMG 2818/2820 31007KT